Time;durP1;ratioP1;P1;durP2;ratioP2;P2;SDS_P1;SDS_P2;PMS_P1;PMS_P2;Temp;Humidity;BMP_temperature;BMP_pressure;BME280_temperature;BME280_humidity;BME280_pressure;Samples;Min_cycle;Max_cycle;Signal;HPM_P1;HPM_P2
2022/03/19 00:02:25;;;;;;;14.68;9.15;;;;;;;;;;5032052;28;20029;-61
2022/03/19 00:04:51;;;;;;;14.65;9.32;;;;;;;;;;5036226;28;20554;-61
2022/03/19 00:07:17;;;;;;;15.50;9.25;;;;;;;;;;5051445;28;20082;-61
2022/03/19 00:09:42;;;;;;;19.60;10.00;;;;;;;;;;5052341;28;20041;-63
2022/03/19 00:12:12;;;;;;;20.88;9.93;;;;;;;;;;5051389;28;20047;-62
2022/03/19 00:14:37;;;;;;;19.77;10.50;;;;;;;;;;5050899;28;20033;-62
2022/03/19 00:17:03;;;;;;;16.13;9.93;;;;;;;;;;5045993;28;20037;-61
2022/03/19 00:19:29;;;;;;;18.77;10.25;;;;;;;;;;5044634;28;20060;-62
2022/03/19 00:21:55;;;;;;;18.80;9.95;;;;;;;;;;5049659;28;20486;-62
2022/03/19 00:24:20;;;;;;;14.15;9.68;;;;;;;;;;5047710;28;20171;-62
2022/03/19 00:26:46;;;;;;;15.90;9.57;;;;;;;;;;5043498;28;20286;-62
2022/03/19 00:29:11;;;;;;;19.98;9.75;;;;;;;;;;5050650;28;20116;-62
2022/03/19 00:31:36;;;;;;;20.20;9.60;;;;;;;;;;5050627;28;20029;-62
2022/03/19 00:34:02;;;;;;;15.80;9.35;;;;;;;;;;5050484;28;20491;-61
2022/03/19 00:36:28;;;;;;;18.88;9.85;;;;;;;;;;5050124;28;20029;-62
2022/03/19 00:38:54;;;;;;;19.13;10.10;;;;;;;;;;5050871;28;20044;-62
2022/03/19 00:41:20;;;;;;;18.17;9.75;;;;;;;;;;5051346;28;20032;-62
2022/03/19 00:43:45;;;;;;;16.13;9.88;;;;;;;;;;5049817;28;20123;-62
2022/03/19 00:46:12;;;;;;;19.70;10.60;;;;;;;;;;5049628;28;20398;-61
2022/03/19 00:48:37;;;;;;;17.13;9.98;;;;;;;;;;5050366;28;20035;-62
2022/03/19 00:51:03;;;;;;;17.65;9.75;;;;;;;;;;5051181;28;20028;-62
2022/03/19 00:53:28;;;;;;;19.65;10.30;;;;;;;;;;5049080;28;20039;-61
2022/03/19 00:55:54;;;;;;;21.10;10.77;;;;;;;;;;5052563;28;20107;-62
2022/03/19 00:58:19;;;;;;;17.23;10.18;;;;;;;;;;5049579;28;20071;-62
2022/03/19 01:00:48;;;;;;;17.58;9.80;;;;;;;;;;5050229;28;20051;-63
2022/03/19 01:03:15;;;;;;;19.60;10.20;;;;;;;;;;5050554;28;20455;-63
2022/03/19 01:05:42;;;;;;;18.10;10.05;;;;;;;;;;5046356;28;20060;-62
2022/03/19 01:08:08;;;;;;;19.17;10.18;;;;;;;;;;5046810;28;20107;-62
2022/03/19 01:10:34;;;;;;;22.90;11.18;;;;;;;;;;5051380;28;20114;-63
2022/03/19 01:12:59;;;;;;;18.38;11.18;;;;;;;;;;5050559;28;20108;-63
2022/03/19 01:15:54;;;;;;;19.00;10.70;;;;;;;;;;5053093;28;20040;-63
2022/03/19 01:18:19;;;;;;;18.65;9.73;;;;;;;;;;5050031;28;20127;-63
2022/03/19 01:20:44;;;;;;;17.73;9.95;;;;;;;;;;5044543;28;20124;-62
2022/03/19 01:23:10;;;;;;;16.73;10.60;;;;;;;;;;5050716;28;20053;-62
2022/03/19 01:25:35;;;;;;;20.23;10.45;;;;;;;;;;5049209;28;20039;-61
2022/03/19 01:28:01;;;;;;;26.08;11.23;;;;;;;;;;5049940;28;20526;-62
2022/03/19 01:30:26;;;;;;;14.82;10.05;;;;;;;;;;5049657;28;20044;-62
2022/03/19 01:32:52;;;;;;;15.20;10.05;;;;;;;;;;5049348;28;20534;-62
2022/03/19 01:35:19;;;;;;;16.23;10.07;;;;;;;;;;5049484;28;20037;-61
2022/03/19 01:37:44;;;;;;;17.35;10.52;;;;;;;;;;5035370;28;20028;-61
2022/03/19 01:40:13;;;;;;;17.42;10.60;;;;;;;;;;5050625;28;20506;-63
2022/03/19 01:42:44;;;;;;;20.17;10.75;;;;;;;;;;5053449;28;20111;-61
2022/03/19 01:45:12;;;;;;;23.73;11.02;;;;;;;;;;5048502;28;20036;-61
2022/03/19 01:47:37;;;;;;;18.77;10.80;;;;;;;;;;5050214;28;20055;-61
2022/03/19 01:50:04;;;;;;;18.73;10.77;;;;;;;;;;5049811;28;20467;-61
2022/03/19 01:52:30;;;;;;;24.13;11.68;;;;;;;;;;5051369;28;20489;-61
2022/03/19 01:54:55;;;;;;;21.25;11.48;;;;;;;;;;5064302;28;20033;-62
2022/03/19 01:57:24;;;;;;;19.63;10.32;;;;;;;;;;5052629;28;20025;-62
2022/03/19 01:59:50;;;;;;;20.02;10.90;;;;;;;;;;5052947;28;20044;-62
2022/03/19 02:02:16;;;;;;;17.98;10.85;;;;;;;;;;5056963;28;20068;-62
2022/03/19 02:04:42;;;;;;;20.75;10.95;;;;;;;;;;5043531;28;20084;-62
2022/03/19 02:07:09;;;;;;;18.88;10.88;;;;;;;;;;5051402;28;20040;-62
2022/03/19 02:09:36;;;;;;;19.80;10.40;;;;;;;;;;5052794;28;20045;-61
2022/03/19 02:12:03;;;;;;;18.88;10.55;;;;;;;;;;5052082;28;20037;-62
2022/03/19 02:14:32;;;;;;;22.55;11.13;;;;;;;;;;5055901;28;20045;-61
2022/03/19 02:17:00;;;;;;;18.20;10.90;;;;;;;;;;5047471;28;20055;-63
2022/03/19 02:19:25;;;;;;;21.90;10.63;;;;;;;;;;5053971;28;20021;-62
2022/03/19 02:21:51;;;;;;;19.52;10.93;;;;;;;;;;5051720;28;20349;-62
2022/03/19 02:27:02;;;;;;;21.27;10.60;;;;;;;;;;5052624;28;20059;-62
2022/03/19 02:29:28;;;;;;;17.20;10.18;;;;;;;;;;5055941;28;20036;-62
2022/03/19 02:31:56;;;;;;;19.52;10.55;;;;;;;;;;5050929;28;20170;-61
2022/03/19 02:34:22;;;;;;;19.50;10.38;;;;;;;;;;5052355;28;20032;-62
2022/03/19 02:36:47;;;;;;;21.75;10.63;;;;;;;;;;5040421;28;20116;-61
2022/03/19 02:39:21;;;;;;;18.38;10.45;;;;;;;;;;5040110;28;20119;-61
2022/03/19 02:41:49;;;;;;;24.02;11.18;;;;;;;;;;5052974;28;20124;-62
2022/03/19 02:44:17;;;;;;;21.27;10.30;;;;;;;;;;5053672;28;20405;-61
2022/03/19 02:46:51;;;;;;;19.02;10.32;;;;;;;;;;5053014;28;20043;-61
2022/03/19 02:49:18;;;;;;;16.48;10.88;;;;;;;;;;5051830;28;20475;-61
2022/03/19 02:51:46;;;;;;;17.17;10.20;;;;;;;;;;5053153;28;20075;-61
2022/03/19 02:54:15;;;;;;;17.60;10.60;;;;;;;;;;5045936;28;20029;-62
2022/03/19 02:56:42;;;;;;;20.77;10.70;;;;;;;;;;5045944;28;20142;-63
2022/03/19 02:59:17;;;;;;;18.85;10.73;;;;;;;;;;5053712;28;20036;-63
2022/03/19 03:01:47;;;;;;;19.05;10.25;;;;;;;;;;5052467;28;20033;-62
2022/03/19 03:04:13;;;;;;;19.27;10.93;;;;;;;;;;5051818;28;20036;-62
2022/03/19 03:06:44;;;;;;;17.52;10.77;;;;;;;;;;5046054;28;20063;-61
2022/03/19 03:09:10;;;;;;;;;;;;;;;;;;5053638;28;20474;-61
2022/03/19 03:11:36;;;;;;;19.98;10.60;;;;;;;;;;5051316;28;19917;-62
2022/03/19 03:14:03;;;;;;;19.85;11.35;;;;;;;;;;5053533;28;20036;-62
2022/03/19 03:16:32;;;;;;;23.33;11.27;;;;;;;;;;5059528;28;20044;-62
2022/03/19 03:19:01;;;;;;;19.25;10.90;;;;;;;;;;5050483;28;20087;-62
2022/03/19 03:21:27;;;;;;;24.15;11.55;;;;;;;;;;5053137;28;20051;-62
2022/03/19 03:23:54;;;;;;;22.65;11.93;;;;;;;;;;5050604;28;20029;-62
2022/03/19 03:26:19;;;;;;;19.08;11.32;;;;;;;;;;5051812;28;20034;-63
2022/03/19 03:28:44;;;;;;;20.15;11.55;;;;;;;;;;5052020;28;20025;-61
2022/03/19 03:31:10;;;;;;;20.65;11.18;;;;;;;;;;5054488;28;20436;-63
2022/03/19 03:33:35;;;;;;;19.25;10.75;;;;;;;;;;5050143;28;20379;-63
2022/03/19 03:36:01;;;;;;;20.70;11.07;;;;;;;;;;5050457;28;20029;-62
2022/03/19 03:38:27;;;;;;;22.08;11.07;;;;;;;;;;5052811;28;20033;-63
2022/03/19 03:40:52;;;;;;;17.08;10.32;;;;;;;;;;5049149;28;20044;-61
2022/03/19 03:43:18;;;;;;;17.02;10.27;;;;;;;;;;5048074;28;20033;-61
2022/03/19 03:45:43;;;;;;;21.23;11.43;;;;;;;;;;5041008;28;20035;-62
2022/03/19 03:48:09;;;;;;;23.15;11.55;;;;;;;;;;5051510;28;20482;-62
2022/03/19 03:50:36;;;;;;;21.60;11.40;;;;;;;;;;5051187;28;20040;-62
2022/03/19 03:53:04;;;;;;;20.73;11.65;;;;;;;;;;5049508;28;20045;-62
2022/03/19 03:55:31;;;;;;;20.58;11.18;;;;;;;;;;5052009;28;20036;-62
2022/03/19 03:57:57;;;;;;;19.33;11.27;;;;;;;;;;5051303;28;20029;-63
2022/03/19 04:00:23;;;;;;;21.15;11.20;;;;;;;;;;5042805;28;20091;-62
2022/03/19 04:02:48;;;;;;;23.83;11.25;;;;;;;;;;5052087;28;20120;-63
2022/03/19 04:05:13;;;;;;;20.60;10.38;;;;;;;;;;5052213;28;20471;-62
2022/03/19 04:07:39;;;;;;;21.35;10.90;;;;;;;;;;5051066;28;20047;-63
2022/03/19 04:10:05;;;;;;;22.55;11.52;;;;;;;;;;5051512;28;20044;-62
2022/03/19 04:12:30;;;;;;;19.38;11.43;;;;;;;;;;5050364;28;20032;-62
2022/03/19 04:14:56;;;;;;;20.52;11.60;;;;;;;;;;5051602;28;20108;-63
2022/03/19 04:17:21;;;;;;;21.60;11.52;;;;;;;;;;5054447;28;20029;-63
2022/03/19 04:19:46;;;;;;;19.90;11.77;;;;;;;;;;5043753;28;20029;-62
2022/03/19 04:22:12;;;;;;;25.40;12.00;;;;;;;;;;5048305;28;20080;-62
2022/03/19 04:24:38;;;;;;;18.35;11.45;;;;;;;;;;5044319;28;20526;-62
2022/03/19 04:27:04;;;;;;;21.83;11.93;;;;;;;;;;5048548;28;20040;-61
2022/03/19 04:29:29;;;;;;;25.85;12.10;;;;;;;;;;5051404;28;20036;-62
2022/03/19 04:31:55;;;;;;;23.23;12.73;;;;;;;;;;5051229;28;20520;-61
2022/03/19 04:34:20;;;;;;;19.98;11.32;;;;;;;;;;5051222;28;20090;-61
2022/03/19 04:36:46;;;;;;;21.30;11.82;;;;;;;;;;5049976;28;20044;-61
2022/03/19 04:39:12;;;;;;;22.17;11.63;;;;;;;;;;5049952;28;20032;-61
2022/03/19 04:41:38;;;;;;;23.02;11.80;;;;;;;;;;5051855;28;20078;-62
2022/03/19 04:44:05;;;;;;;21.40;12.20;;;;;;;;;;5051427;28;20526;-63
2022/03/19 04:46:30;;;;;;;18.40;11.75;;;;;;;;;;5050685;28;20056;-62
2022/03/19 04:48:56;;;;;;;20.58;12.23;;;;;;;;;;5052291;28;20068;-62
2022/03/19 04:51:29;;;;;;;24.00;12.38;;;;;;;;;;5046222;28;20467;-61
2022/03/19 04:53:54;;;;;;;20.40;12.63;;;;;;;;;;5033491;28;20489;-62
2022/03/19 04:56:25;;;;;;;24.05;12.80;;;;;;;;;;5048941;28;20033;-62
2022/03/19 04:58:53;;;;;;;25.80;12.32;;;;;;;;;;5049767;28;21652;-63
2022/03/19 05:01:19;;;;;;;25.58;12.68;;;;;;;;;;5048826;28;20045;-62
2022/03/19 05:03:44;;;;;;;24.45;12.82;;;;;;;;;;5051883;28;20052;-62
2022/03/19 05:06:10;;;;;;;22.45;12.68;;;;;;;;;;5050069;28;20041;-62
2022/03/19 05:08:35;;;;;;;22.33;11.63;;;;;;;;;;5049975;28;20118;-61
2022/03/19 05:11:13;;;;;;;22.60;11.65;;;;;;;;;;5048939;28;20171;-62
2022/03/19 05:13:40;;;;;;;21.00;12.10;;;;;;;;;;5050563;28;20036;-62
2022/03/19 05:16:05;;;;;;;19.95;11.32;;;;;;;;;;5050317;28;20059;-63
2022/03/19 05:18:31;;;;;;;21.73;12.25;;;;;;;;;;5051535;28;20033;-63
2022/03/19 05:20:56;;;;;;;23.25;12.35;;;;;;;;;;5048652;28;20064;-61
2022/03/19 05:23:23;;;;;;;18.23;11.43;;;;;;;;;;5050952;28;20029;-62
2022/03/19 05:25:49;;;;;;;21.33;11.77;;;;;;;;;;5044309;28;20090;-61
2022/03/19 05:28:14;;;;;;;27.67;13.30;;;;;;;;;;5050229;28;20069;-63
2022/03/19 05:30:39;;;;;;;23.05;11.85;;;;;;;;;;5051919;28;20044;-61
2022/03/19 05:33:05;;;;;;;23.65;12.80;;;;;;;;;;5050307;28;20068;-62
2022/03/19 05:35:31;;;;;;;24.60;12.18;;;;;;;;;;5051137;28;20033;-61
2022/03/19 05:37:59;;;;;;;23.25;11.90;;;;;;;;;;5061093;28;20085;-61
2022/03/19 05:40:25;;;;;;;20.58;11.05;;;;;;;;;;5071196;28;20028;-61
2022/03/19 05:42:51;;;;;;;20.13;11.80;;;;;;;;;;5054802;28;20068;-61
2022/03/19 05:45:19;;;;;;;21.77;11.70;;;;;;;;;;5058470;28;20496;-62
2022/03/19 05:48:10;;;;;;;20.55;11.18;;;;;;;;;;5061104;28;20110;-61
2022/03/19 05:50:36;;;;;;;23.05;11.65;;;;;;;;;;5058641;28;20040;-61
2022/03/19 05:53:01;;;;;;;20.75;11.63;;;;;;;;;;5073057;28;20514;-62
2022/03/19 05:55:26;;;;;;;17.70;10.95;;;;;;;;;;5074216;28;20029;-61
2022/03/19 05:57:52;;;;;;;19.10;10.82;;;;;;;;;;5074086;28;20021;-62
2022/03/19 06:00:17;;;;;;;24.58;10.35;;;;;;;;;;5072805;28;20032;-63
2022/03/19 06:02:43;;;;;;;21.75;10.70;;;;;;;;;;5054823;28;20037;-62
2022/03/19 06:05:09;;;;;;;21.15;10.65;;;;;;;;;;5052464;28;20044;-62
2022/03/19 06:07:34;;;;;;;20.42;10.60;;;;;;;;;;5054918;28;20040;-62
2022/03/19 06:10:00;;;;;;;25.05;11.52;;;;;;;;;;5059855;28;20040;-62
2022/03/19 06:12:25;;;;;;;19.88;10.13;;;;;;;;;;5074914;28;20031;-62
2022/03/19 06:14:53;;;;;;;19.73;11.05;;;;;;;;;;5072191;28;20032;-62
2022/03/19 06:17:20;;;;;;;19.90;11.30;;;;;;;;;;5064236;28;20175;-63
2022/03/19 06:19:46;;;;;;;21.40;10.90;;;;;;;;;;5057953;28;20055;-62
2022/03/19 06:22:11;;;;;;;20.45;10.82;;;;;;;;;;5053177;28;20076;-62
2022/03/19 06:24:37;;;;;;;21.10;10.48;;;;;;;;;;5042507;28;20098;-62
2022/03/19 06:27:03;;;;;;;19.77;10.48;;;;;;;;;;5052757;28;20032;-62
2022/03/19 06:29:28;;;;;;;21.30;10.60;;;;;;;;;;5064520;28;20047;-63
2022/03/19 06:31:54;;;;;;;19.52;10.30;;;;;;;;;;5072759;28;20024;-62
2022/03/19 06:34:19;;;;;;;18.35;9.48;;;;;;;;;;5071978;28;20048;-61
2022/03/19 06:39:28;;;;;;;20.90;9.43;;;;;;;;;;5047039;28;20068;-61
2022/03/19 06:41:54;;;;;;;16.98;9.05;;;;;;;;;;5044603;28;20472;-62
2022/03/19 06:44:19;;;;;;;20.13;8.77;;;;;;;;;;5054136;28;20041;-63
2022/03/19 06:46:45;;;;;;;15.30;8.38;;;;;;;;;;5065867;28;20090;-62
2022/03/19 06:49:10;;;;;;;20.25;8.88;;;;;;;;;;5072107;28;20024;-61
2022/03/19 06:51:36;;;;;;;18.13;8.20;;;;;;;;;;5052824;28;20184;-62
2022/03/19 06:54:03;;;;;;;19.25;8.35;;;;;;;;;;5053268;28;20067;-66
2022/03/19 06:56:28;;;;;;;16.70;8.32;;;;;;;;;;5053663;28;20059;-65
2022/03/19 06:58:54;;;;;;;20.40;8.60;;;;;;;;;;5053107;28;20471;-64
2022/03/19 07:01:19;;;;;;;18.35;8.20;;;;;;;;;;5053616;28;20060;-63
2022/03/19 07:03:46;;;;;;;18.17;8.75;;;;;;;;;;5052907;28;20032;-65
2022/03/19 07:06:13;;;;;;;25.15;9.07;;;;;;;;;;5053154;28;20029;-65
2022/03/19 07:08:38;;;;;;;23.08;9.05;;;;;;;;;;5052633;28;20037;-66
2022/03/19 07:11:04;;;;;;;21.88;7.70;;;;;;;;;;5053105;28;20060;-66
2022/03/19 07:13:31;;;;;;;17.10;8.45;;;;;;;;;;5049344;28;20028;-65
2022/03/19 07:15:56;;;;;;;16.50;8.43;;;;;;;;;;5052730;28;20029;-65
2022/03/19 07:18:23;;;;;;;19.63;9.13;;;;;;;;;;5053507;28;20577;-66
2022/03/19 07:20:50;;;;;;;18.30;7.65;;;;;;;;;;5053302;28;20116;-65
2022/03/19 07:23:15;;;;;;;17.70;8.40;;;;;;;;;;5057882;28;20414;-65
2022/03/19 07:25:43;;;;;;;19.80;8.52;;;;;;;;;;5058484;28;20035;-66
2022/03/19 07:28:15;;;;;;;16.88;8.30;;;;;;;;;;5059740;28;20051;-69
2022/03/19 07:30:41;;;;;;;14.23;8.10;;;;;;;;;;5052477;28;20487;-71
2022/03/19 07:33:07;;;;;;;18.23;8.55;;;;;;;;;;5051264;28;20163;-69
2022/03/19 07:35:32;;;;;;;21.67;8.25;;;;;;;;;;5052557;28;20032;-70
2022/03/19 07:37:57;;;;;;;20.65;8.68;;;;;;;;;;5050368;28;20028;-68
2022/03/19 07:43:10;;;;;;;22.15;8.75;;;;;;;;;;5051812;28;20048;-70
2022/03/19 07:45:37;;;;;;;19.63;8.98;;;;;;;;;;5052869;28;20037;-73
2022/03/19 07:48:03;;;;;;;19.70;8.45;;;;;;;;;;5052102;28;20462;-71
2022/03/19 07:50:29;;;;;;;19.48;8.60;;;;;;;;;;5053036;28;20086;-74
2022/03/19 07:52:55;;;;;;;18.48;8.32;;;;;;;;;;5051879;28;20082;-67
2022/03/19 07:55:20;;;;;;;20.90;8.40;;;;;;;;;;5053012;28;20028;-72
2022/03/19 07:57:46;;;;;;;17.13;8.63;;;;;;;;;;5052589;28;20037;-75
2022/03/19 08:00:12;;;;;;;19.27;8.52;;;;;;;;;;5051563;28;20032;-72
2022/03/19 08:02:42;;;;;;;19.63;8.55;;;;;;;;;;5051559;28;20064;-73
2022/03/19 08:05:09;;;;;;;18.20;8.23;;;;;;;;;;5050696;28;20037;-73
2022/03/19 08:07:37;;;;;;;15.55;7.97;;;;;;;;;;5052367;28;20035;-72
2022/03/19 08:10:03;;;;;;;15.70;8.43;;;;;;;;;;5049710;28;20040;-72
2022/03/19 08:12:28;;;;;;;16.65;7.80;;;;;;;;;;5052053;28;20391;-72
2022/03/19 08:14:55;;;;;;;15.75;7.47;;;;;;;;;;5051653;28;20033;-67
2022/03/19 08:17:20;;;;;;;20.85;8.25;;;;;;;;;;5052105;28;20502;-72
2022/03/19 08:19:46;;;;;;;14.70;7.85;;;;;;;;;;5052382;28;20029;-69
2022/03/19 08:22:11;;;;;;;17.55;8.27;;;;;;;;;;5049545;28;20266;-74
2022/03/19 08:24:37;;;;;;;18.73;7.32;;;;;;;;;;5052439;28;20491;-72
2022/03/19 08:27:03;;;;;;;19.25;7.85;;;;;;;;;;5050234;28;20029;-72
2022/03/19 08:29:29;;;;;;;17.85;8.02;;;;;;;;;;5052134;28;20028;-70
2022/03/19 08:31:55;;;;;;;13.15;6.97;;;;;;;;;;5051488;28;20043;-68
2022/03/19 08:34:22;;;;;;;17.30;7.35;;;;;;;;;;5052674;28;20037;-73
2022/03/19 08:36:48;;;;;;;15.15;6.80;;;;;;;;;;5051143;28;20040;-72
2022/03/19 08:41:58;;;;;;;13.90;6.38;;;;;;;;;;5050740;28;20098;-72
2022/03/19 08:44:25;;;;;;;14.38;6.60;;;;;;;;;;5050596;28;20029;-71
2022/03/19 08:46:51;;;;;;;16.95;6.20;;;;;;;;;;5052080;28;20029;-71
2022/03/19 08:49:16;;;;;;;15.25;6.00;;;;;;;;;;5050518;28;20054;-72
2022/03/19 08:51:42;;;;;;;14.70;6.38;;;;;;;;;;5050997;28;20040;-72
2022/03/19 08:54:16;;;;;;;15.48;6.68;;;;;;;;;;5051283;28;20417;-72
2022/03/19 08:56:43;;;;;;;13.18;5.78;;;;;;;;;;5051869;28;20037;-72
2022/03/19 08:59:09;;;;;;;12.77;6.07;;;;;;;;;;5049571;28;20471;-71
2022/03/19 09:01:35;;;;;;;10.95;5.47;;;;;;;;;;5051577;28;20045;-69
2022/03/19 09:04:01;;;;;;;10.35;5.30;;;;;;;;;;5050632;28;20048;-67
2022/03/19 09:06:26;;;;;;;10.98;5.18;;;;;;;;;;5051583;28;20036;-69
2022/03/19 09:08:52;;;;;;;9.25;4.80;;;;;;;;;;5050921;28;20036;-70
2022/03/19 09:11:19;;;;;;;12.98;5.18;;;;;;;;;;5048515;28;20506;-71
2022/03/19 09:13:47;;;;;;;11.45;4.80;;;;;;;;;;5050697;28;20474;-71
2022/03/19 09:16:12;;;;;;;11.15;4.22;;;;;;;;;;5050478;28;20125;-71
2022/03/19 09:18:38;;;;;;;11.63;3.95;;;;;;;;;;5051078;28;20471;-71
2022/03/19 09:21:03;;;;;;;7.68;3.50;;;;;;;;;;5048819;28;20139;-68
2022/03/19 09:23:29;;;;;;;10.70;4.03;;;;;;;;;;5031121;28;20029;-68
2022/03/19 09:26:07;;;;;;;7.63;3.47;;;;;;;;;;5050937;28;20056;-63
2022/03/19 09:28:32;;;;;;;8.40;3.90;;;;;;;;;;5035925;28;20031;-68
2022/03/19 09:30:59;;;;;;;8.80;3.55;;;;;;;;;;5050063;28;20451;-64
2022/03/19 09:33:24;;;;;;;6.80;3.05;;;;;;;;;;5049397;28;20039;-70
2022/03/19 09:35:50;;;;;;;10.02;3.50;;;;;;;;;;5051970;28;20037;-72
2022/03/19 09:38:17;;;;;;;8.23;3.67;;;;;;;;;;5049018;28;20226;-66
2022/03/19 09:40:43;;;;;;;9.32;3.55;;;;;;;;;;5029921;28;20122;-66
2022/03/19 09:43:09;;;;;;;7.72;3.20;;;;;;;;;;5030547;28;20475;-66
2022/03/19 09:45:35;;;;;;;12.48;3.60;;;;;;;;;;5031528;28;20499;-66
2022/03/19 09:48:01;;;;;;;7.60;3.05;;;;;;;;;;5030852;28;20032;-66
2022/03/19 09:50:27;;;;;;;8.60;3.17;;;;;;;;;;5031893;28;20041;-66
2022/03/19 09:52:54;;;;;;;9.57;3.20;;;;;;;;;;5037687;28;20119;-66
2022/03/19 09:55:26;;;;;;;7.47;3.00;;;;;;;;;;5050953;28;20037;-67
2022/03/19 09:57:52;;;;;;;7.93;3.00;;;;;;;;;;5051850;28;20116;-66
2022/03/19 10:00:22;;;;;;;7.65;3.22;;;;;;;;;;5049905;28;20032;-66
2022/03/19 10:03:01;;;;;;;10.70;3.60;;;;;;;;;;5051178;28;20024;-66
2022/03/19 10:11:11;;;;;;;5.75;2.42;;;;;;;;;;5051329;28;20138;-65
2022/03/19 10:13:44;;;;;;;7.60;2.78;;;;;;;;;;5048059;28;20044;-67
2022/03/19 10:16:11;;;;;;;6.57;2.20;;;;;;;;;;5061384;28;20036;-68
2022/03/19 10:18:37;;;;;;;4.78;2.30;;;;;;;;;;5050924;28;20036;-68
2022/03/19 10:21:23;;;;;;;5.68;2.53;;;;;;;;;;5049123;28;20057;-66
2022/03/19 10:23:50;;;;;;;6.88;2.38;;;;;;;;;;5049799;28;20541;-67
2022/03/19 10:26:27;;;;;;;4.90;2.47;;;;;;;;;;5063113;28;20589;-66
2022/03/19 10:29:01;;;;;;;7.63;2.70;;;;;;;;;;5066625;28;20166;-67
2022/03/19 10:31:43;;;;;;;6.95;2.72;;;;;;;;;;5074343;28;20052;-68
2022/03/19 10:34:10;;;;;;;7.13;2.47;;;;;;;;;;5063405;28;20067;-67
2022/03/19 10:36:43;;;;;;;6.28;2.65;;;;;;;;;;5053443;28;20040;-68
2022/03/19 10:39:20;;;;;;;7.45;2.60;;;;;;;;;;5050936;28;20478;-67
2022/03/19 10:41:47;;;;;;;7.15;2.63;;;;;;;;;;5054362;28;20037;-69
2022/03/19 10:44:20;;;;;;;9.63;2.55;;;;;;;;;;5052316;28;20037;-68
2022/03/19 10:46:50;;;;;;;6.07;2.47;;;;;;;;;;5054184;28;20037;-69
2022/03/19 10:49:17;;;;;;;8.10;2.50;;;;;;;;;;5053249;28;20051;-68
2022/03/19 10:51:47;;;;;;;7.05;2.50;;;;;;;;;;5054014;28;20025;-68
2022/03/19 10:54:14;;;;;;;9.57;2.50;;;;;;;;;;5050505;28;20021;-67
2022/03/19 10:56:41;;;;;;;7.13;2.50;;;;;;;;;;5056913;28;20063;-68
2022/03/19 10:59:17;;;;;;;7.05;2.28;;;;;;;;;;5040823;28;20037;-68
2022/03/19 11:01:43;;;;;;;5.32;2.35;;;;;;;;;;5053782;28;20075;-68
2022/03/19 11:04:11;;;;;;;6.28;2.00;;;;;;;;;;5052157;28;20060;-67
2022/03/19 11:06:41;;;;;;;5.78;2.30;;;;;;;;;;5053815;28;20029;-66
2022/03/19 11:09:10;;;;;;;6.68;2.10;;;;;;;;;;5047213;28;20048;-67
2022/03/19 11:11:48;;;;;;;7.13;2.15;;;;;;;;;;5059978;28;20036;-68
2022/03/19 11:17:27;;;;;;;5.50;2.10;;;;;;;;;;5033118;28;20068;-69
2022/03/19 11:20:02;;;;;;;5.50;2.50;;;;;;;;;;5053869;28;20036;-67
2022/03/19 11:22:39;;;;;;;5.60;2.67;;;;;;;;;;5052512;28;20045;-69
2022/03/19 11:25:26;;;;;;;5.65;2.70;;;;;;;;;;5054733;28;20400;-67
2022/03/19 11:27:55;;;;;;;8.05;2.63;;;;;;;;;;5051884;28;20091;-68
2022/03/19 11:30:24;;;;;;;6.43;2.80;;;;;;;;;;5051859;28;20198;-66
2022/03/19 11:33:21;;;;;;;6.07;2.58;;;;;;;;;;5051859;28;20486;-67
2022/03/19 11:36:03;;;;;;;4.93;2.20;;;;;;;;;;5054026;28;20102;-67
2022/03/19 11:38:30;;;;;;;10.23;2.50;;;;;;;;;;5068887;28;20098;-68
2022/03/19 11:40:58;;;;;;;6.00;2.38;;;;;;;;;;5069627;28;20029;-66
2022/03/19 11:43:44;;;;;;;5.93;2.45;;;;;;;;;;5072046;28;20109;-67
2022/03/19 11:46:12;;;;;;;5.43;2.40;;;;;;;;;;5048849;28;20041;-67
2022/03/19 11:48:39;;;;;;;6.55;2.50;;;;;;;;;;5057668;28;20040;-70
2022/03/19 11:51:23;;;;;;;5.57;2.20;;;;;;;;;;5050209;28;20493;-63
2022/03/19 11:53:54;;;;;;;6.15;2.40;;;;;;;;;;5052288;28;20282;-67
2022/03/19 11:56:43;;;;;;;6.72;2.40;;;;;;;;;;5051694;28;20378;-65
2022/03/19 11:59:24;;;;;;;5.63;2.30;;;;;;;;;;5051329;28;20036;-67
2022/03/19 12:01:57;;;;;;;5.00;2.50;;;;;;;;;;5054478;28;20033;-66
2022/03/19 12:04:24;;;;;;;4.70;2.05;;;;;;;;;;5054320;28;20083;-68
2022/03/19 12:06:58;;;;;;;4.55;2.20;;;;;;;;;;5073023;28;20039;-67
2022/03/19 12:09:38;;;;;;;5.57;2.05;;;;;;;;;;5053920;28;20024;-67
2022/03/19 12:12:16;;;;;;;7.10;2.20;;;;;;;;;;5069857;28;20032;-65
2022/03/19 12:14:42;;;;;;;6.82;2.53;;;;;;;;;;5052446;28;20029;-68
2022/03/19 12:17:20;;;;;;;6.63;2.70;;;;;;;;;;5050466;28;20124;-67
2022/03/19 12:19:53;;;;;;;5.22;2.10;;;;;;;;;;5051933;28;20033;-69
2022/03/19 12:22:39;;;;;;;5.47;2.38;;;;;;;;;;5049555;28;20079;-69
2022/03/19 12:25:13;;;;;;;5.22;1.83;;;;;;;;;;5052044;28;20082;-65
2022/03/19 12:27:49;;;;;;;5.15;1.90;;;;;;;;;;5050966;28;20037;-67
2022/03/19 12:30:15;;;;;;;4.90;1.88;;;;;;;;;;5036347;28;20052;-67
2022/03/19 12:32:49;;;;;;;5.32;2.00;;;;;;;;;;5051558;28;20029;-66
2022/03/19 12:35:16;;;;;;;2.88;1.75;;;;;;;;;;5035764;28;20033;-66
2022/03/19 12:37:54;;;;;;;3.67;1.75;;;;;;;;;;5050689;28;20032;-66
2022/03/19 12:40:22;;;;;;;6.28;2.15;;;;;;;;;;5050852;28;20398;-65
2022/03/19 12:42:58;;;;;;;4.75;2.13;;;;;;;;;;5050075;28;20568;-67
2022/03/19 12:45:46;;;;;;;3.33;1.90;;;;;;;;;;5049531;28;20669;-70
2022/03/19 12:48:14;;;;;;;6.70;2.05;;;;;;;;;;5018453;28;20043;-70
2022/03/19 12:50:55;;;;;;;4.18;2.00;;;;;;;;;;5037381;28;20056;-70
2022/03/19 12:53:33;;;;;;;6.53;1.88;;;;;;;;;;5050958;28;20033;-72
2022/03/19 12:56:19;;;;;;;3.28;1.85;;;;;;;;;;5050970;28;20099;-72
2022/03/19 12:58:50;;;;;;;2.83;1.60;;;;;;;;;;5051548;28;20032;-73
2022/03/19 13:01:19;;;;;;;3.05;1.70;;;;;;;;;;5050581;28;20124;-70
2022/03/19 13:03:44;;;;;;;4.82;1.60;;;;;;;;;;5051785;28;20075;-70
2022/03/19 13:06:11;;;;;;;3.85;1.60;;;;;;;;;;5049601;28;20450;-66
2022/03/19 13:08:47;;;;;;;3.67;1.60;;;;;;;;;;5051438;28;20119;-68
2022/03/19 13:11:14;;;;;;;6.25;1.80;;;;;;;;;;5048262;28;20079;-64
2022/03/19 13:13:41;;;;;;;5.05;1.58;;;;;;;;;;5050758;28;20044;-64
2022/03/19 13:16:07;;;;;;;4.30;1.75;;;;;;;;;;5049925;28;20375;-65
2022/03/19 13:18:35;;;;;;;4.90;1.80;;;;;;;;;;5053992;28;20467;-64
2022/03/19 13:21:02;;;;;;;6.93;1.88;;;;;;;;;;5051597;28;22308;-64
2022/03/19 13:23:29;;;;;;;3.40;1.50;;;;;;;;;;5052802;28;20063;-64
2022/03/19 13:25:56;;;;;;;2.88;1.45;;;;;;;;;;5059043;28;20111;-64
2022/03/19 13:28:21;;;;;;;2.60;1.60;;;;;;;;;;5030869;28;20120;-64
2022/03/19 13:30:49;;;;;;;3.75;1.63;;;;;;;;;;5043483;28;20120;-63
2022/03/19 13:33:16;;;;;;;3.78;1.73;;;;;;;;;;5050609;28;20025;-65
2022/03/19 13:35:47;;;;;;;3.15;1.60;;;;;;;;;;5057780;28;20036;-63
2022/03/19 13:38:14;;;;;;;4.50;1.60;;;;;;;;;;5030546;28;20033;-63
2022/03/19 13:40:40;;;;;;;6.07;1.60;;;;;;;;;;5050063;28;20115;-63
2022/03/19 13:43:05;;;;;;;2.85;1.50;;;;;;;;;;5063108;28;20036;-63
2022/03/19 13:45:32;;;;;;;2.78;1.30;;;;;;;;;;5029760;28;20040;-63
2022/03/19 13:48:09;;;;;;;2.55;1.48;;;;;;;;;;5047147;28;20120;-62
2022/03/19 13:50:41;;;;;;;6.30;1.40;;;;;;;;;;5049163;28;20434;-66
2022/03/19 13:53:08;;;;;;;3.38;1.45;;;;;;;;;;5050551;28;20486;-66
2022/03/19 13:55:39;;;;;;;3.55;1.77;;;;;;;;;;5050455;28;20825;-66
2022/03/19 13:58:13;;;;;;;4.05;1.50;;;;;;;;;;5048333;28;20039;-64
2022/03/19 14:00:43;;;;;;;4.47;1.50;;;;;;;;;;5053975;28;20051;-66
2022/03/19 14:03:12;;;;;;;3.28;1.48;;;;;;;;;;5054222;28;20033;-69
2022/03/19 14:05:56;;;;;;;4.30;1.60;;;;;;;;;;5052944;28;20032;-65
2022/03/19 14:08:24;;;;;;;6.43;1.80;;;;;;;;;;5054269;28;20029;-66
2022/03/19 14:10:55;;;;;;;3.85;1.70;;;;;;;;;;5053014;28;20120;-64
2022/03/19 14:13:32;;;;;;;4.72;1.92;;;;;;;;;;5054355;28;20040;-63
2022/03/19 14:15:58;;;;;;;4.53;1.70;;;;;;;;;;5054714;28;20021;-66
2022/03/19 14:18:29;;;;;;;5.03;1.88;;;;;;;;;;5053989;28;20037;-66
2022/03/19 14:20:57;;;;;;;3.38;1.90;;;;;;;;;;5052616;28;20036;-63
2022/03/19 14:23:23;;;;;;;4.15;1.80;;;;;;;;;;5057124;28;20039;-64
2022/03/19 14:25:49;;;;;;;3.63;1.77;;;;;;;;;;5074642;28;20111;-65
2022/03/19 14:28:16;;;;;;;3.92;1.67;;;;;;;;;;5071983;28;20107;-65
2022/03/19 14:30:43;;;;;;;3.55;1.80;;;;;;;;;;5074897;28;20089;-64
2022/03/19 14:33:09;;;;;;;3.30;1.60;;;;;;;;;;5061032;28;20466;-64
2022/03/19 14:35:53;;;;;;;4.90;1.85;;;;;;;;;;5051647;28;20040;-64
2022/03/19 14:38:33;;;;;;;4.53;1.77;;;;;;;;;;5053850;28;20106;-65
2022/03/19 14:41:02;;;;;;;6.38;1.75;;;;;;;;;;5053291;28;20029;-64
2022/03/19 14:43:28;;;;;;;5.10;1.95;;;;;;;;;;5051878;28;20048;-67
2022/03/19 14:45:56;;;;;;;4.38;2.08;;;;;;;;;;5053417;28;20108;-66
2022/03/19 14:48:23;;;;;;;3.88;2.35;;;;;;;;;;5051441;28;20484;-67
2022/03/19 14:50:50;;;;;;;5.20;2.00;;;;;;;;;;5054258;28;20054;-70
2022/03/19 14:53:16;;;;;;;7.28;2.00;;;;;;;;;;5033408;28;20482;-69
2022/03/19 14:55:43;;;;;;;5.53;2.33;;;;;;;;;;5047999;28;20445;-70
2022/03/19 14:58:10;;;;;;;6.25;2.47;;;;;;;;;;5054174;28;20079;-68